sensor_id;sensor_type;location;lat;lon;timestamp;P1;durP1;ratioP1;P2;durP2;ratioP2
25349;SDS011;13302;48.796;11.978;2022-11-11T00:01:37;2.30;;;2.20;;
25349;SDS011;13302;48.796;11.978;2022-11-11T00:04:43;2.73;;;2.53;;
25349;SDS011;13302;48.796;11.978;2022-11-11T00:07:48;2.43;;;2.33;;
25349;SDS011;13302;48.796;11.978;2022-11-11T00:11:00;2.93;;;2.80;;
25349;SDS011;13302;48.796;11.978;2022-11-11T00:14:07;3.10;;;2.90;;
25349;SDS011;13302;48.796;11.978;2022-11-11T00:17:12;2.80;;;2.60;;
25349;SDS011;13302;48.796;11.978;2022-11-11T00:20:37;2.93;;;2.30;;
25349;SDS011;13302;48.796;11.978;2022-11-11T00:24:02;2.20;;;2.10;;
25349;SDS011;13302;48.796;11.978;2022-11-11T00:27:27;2.17;;;2.07;;
25349;SDS011;13302;48.796;11.978;2022-11-11T00:30:32;2.90;;;2.67;;
25349;SDS011;13302;48.796;11.978;2022-11-11T00:33:38;3.17;;;2.77;;
25349;SDS011;13302;48.796;11.978;2022-11-11T00:36:43;7.00;;;3.10;;
25349;SDS011;13302;48.796;11.978;2022-11-11T00:39:49;2.70;;;2.50;;
25349;SDS011;13302;48.796;11.978;2022-11-11T00:42:55;2.57;;;2.37;;
25349;SDS011;13302;48.796;11.978;2022-11-11T00:46:00;2.67;;;2.50;;
25349;SDS011;13302;48.796;11.978;2022-11-11T00:49:24;2.10;;;2.00;;
25349;SDS011;13302;48.796;11.978;2022-11-11T00:52:49;2.27;;;2.17;;
25349;SDS011;13302;48.796;11.978;2022-11-11T00:55:55;2.63;;;2.43;;
25349;SDS011;13302;48.796;11.978;2022-11-11T00:59:01;1.67;;;1.67;;
25349;SDS011;13302;48.796;11.978;2022-11-11T01:02:08;2.17;;;2.07;;
25349;SDS011;13302;48.796;11.978;2022-11-11T01:05:14;2.20;;;2.10;;
25349;SDS011;13302;48.796;11.978;2022-11-11T01:08:20;1.93;;;1.70;;
25349;SDS011;13302;48.796;11.978;2022-11-11T01:11:32;1.80;;;1.80;;
25349;SDS011;13302;48.796;11.978;2022-11-11T01:14:37;1.13;;;1.13;;
25349;SDS011;13302;48.796;11.978;2022-11-11T01:17:43;2.00;;;1.93;;
25349;SDS011;13302;48.796;11.978;2022-11-11T01:21:05;1.90;;;1.80;;
25349;SDS011;13302;48.796;11.978;2022-11-11T01:24:13;2.00;;;1.90;;
25349;SDS011;13302;48.796;11.978;2022-11-11T01:27:19;1.80;;;1.73;;
25349;SDS011;13302;48.796;11.978;2022-11-11T01:30:24;2.00;;;1.87;;
25349;SDS011;13302;48.796;11.978;2022-11-11T01:33:30;1.97;;;1.87;;
25349;SDS011;13302;48.796;11.978;2022-11-11T01:36:37;2.10;;;2.00;;
25349;SDS011;13302;48.796;11.978;2022-11-11T01:39:42;2.00;;;1.90;;
25349;SDS011;13302;48.796;11.978;2022-11-11T01:42:52;4.20;;;1.93;;
25349;SDS011;13302;48.796;11.978;2022-11-11T01:46:26;4.47;;;2.70;;
25349;SDS011;13302;48.796;11.978;2022-11-11T01:49:55;2.33;;;2.23;;
25349;SDS011;13302;48.796;11.978;2022-11-11T01:53:05;2.47;;;2.37;;
25349;SDS011;13302;48.796;11.978;2022-11-11T01:56:11;2.70;;;2.50;;
25349;SDS011;13302;48.796;11.978;2022-11-11T01:59:17;4.37;;;2.73;;
25349;SDS011;13302;48.796;11.978;2022-11-11T02:02:24;3.37;;;2.70;;
25349;SDS011;13302;48.796;11.978;2022-11-11T02:05:35;3.40;;;3.10;;
25349;SDS011;13302;48.796;11.978;2022-11-11T02:08:48;2.57;;;2.37;;
25349;SDS011;13302;48.796;11.978;2022-11-11T02:11:53;3.00;;;2.80;;
25349;SDS011;13302;48.796;11.978;2022-11-11T02:15:20;3.13;;;2.90;;
25349;SDS011;13302;48.796;11.978;2022-11-11T02:18:25;3.00;;;2.83;;
25349;SDS011;13302;48.796;11.978;2022-11-11T02:21:34;2.33;;;2.23;;
25349;SDS011;13302;48.796;11.978;2022-11-11T02:24:46;2.30;;;2.20;;
25349;SDS011;13302;48.796;11.978;2022-11-11T02:27:52;2.30;;;2.20;;
25349;SDS011;13302;48.796;11.978;2022-11-11T02:31:03;2.23;;;2.10;;
25349;SDS011;13302;48.796;11.978;2022-11-11T02:34:09;3.00;;;2.80;;
25349;SDS011;13302;48.796;11.978;2022-11-11T02:37:16;2.40;;;2.30;;
25349;SDS011;13302;48.796;11.978;2022-11-11T02:40:31;2.67;;;2.47;;
25349;SDS011;13302;48.796;11.978;2022-11-11T02:43:40;2.10;;;2.00;;
25349;SDS011;13302;48.796;11.978;2022-11-11T02:46:47;2.73;;;2.63;;
25349;SDS011;13302;48.796;11.978;2022-11-11T02:49:53;2.80;;;2.60;;
25349;SDS011;13302;48.796;11.978;2022-11-11T02:52:59;2.50;;;2.40;;
25349;SDS011;13302;48.796;11.978;2022-11-11T02:56:04;3.07;;;2.87;;
25349;SDS011;13302;48.796;11.978;2022-11-11T02:59:10;3.83;;;3.53;;
25349;SDS011;13302;48.796;11.978;2022-11-11T03:02:16;2.93;;;2.83;;
25349;SDS011;13302;48.796;11.978;2022-11-11T03:05:22;3.37;;;3.17;;
25349;SDS011;13302;48.796;11.978;2022-11-11T03:08:27;3.30;;;3.10;;
25349;SDS011;13302;48.796;11.978;2022-11-11T03:11:33;3.03;;;2.80;;
25349;SDS011;13302;48.796;11.978;2022-11-11T03:14:42;3.67;;;3.47;;
25349;SDS011;13302;48.796;11.978;2022-11-11T03:17:48;3.23;;;2.90;;
25349;SDS011;13302;48.796;11.978;2022-11-11T03:20:54;2.70;;;2.60;;
25349;SDS011;13302;48.796;11.978;2022-11-11T03:24:29;3.00;;;2.80;;
25349;SDS011;13302;48.796;11.978;2022-11-11T03:27:54;3.30;;;3.10;;
25349;SDS011;13302;48.796;11.978;2022-11-11T03:30:59;2.67;;;2.47;;
25349;SDS011;13302;48.796;11.978;2022-11-11T03:34:09;2.60;;;2.50;;
25349;SDS011;13302;48.796;11.978;2022-11-11T03:37:23;1.97;;;1.97;;
25349;SDS011;13302;48.796;11.978;2022-11-11T03:40:48;2.10;;;2.00;;
25349;SDS011;13302;48.796;11.978;2022-11-11T03:43:56;2.10;;;2.10;;
25349;SDS011;13302;48.796;11.978;2022-11-11T03:47:02;1.77;;;1.77;;
25349;SDS011;13302;48.796;11.978;2022-11-11T03:50:07;1.90;;;1.90;;
25349;SDS011;13302;48.796;11.978;2022-11-11T03:53:14;1.90;;;1.90;;
25349;SDS011;13302;48.796;11.978;2022-11-11T03:56:20;2.27;;;2.17;;
25349;SDS011;13302;48.796;11.978;2022-11-11T03:59:25;2.20;;;2.10;;
25349;SDS011;13302;48.796;11.978;2022-11-11T04:02:31;1.90;;;1.90;;
25349;SDS011;13302;48.796;11.978;2022-11-11T04:05:55;2.00;;;2.00;;
25349;SDS011;13302;48.796;11.978;2022-11-11T04:09:07;1.83;;;1.83;;
25349;SDS011;13302;48.796;11.978;2022-11-11T04:12:32;1.93;;;1.93;;
25349;SDS011;13302;48.796;11.978;2022-11-11T04:16:00;1.83;;;1.80;;
25349;SDS011;13302;48.796;11.978;2022-11-11T04:19:12;1.80;;;1.80;;
25349;SDS011;13302;48.796;11.978;2022-11-11T04:22:40;2.10;;;2.00;;
25349;SDS011;13302;48.796;11.978;2022-11-11T04:25:47;2.17;;;2.07;;
25349;SDS011;13302;48.796;11.978;2022-11-11T04:28:53;2.00;;;2.00;;
25349;SDS011;13302;48.796;11.978;2022-11-11T04:32:18;2.57;;;2.47;;
25349;SDS011;13302;48.796;11.978;2022-11-11T04:35:47;2.40;;;2.30;;
25349;SDS011;13302;48.796;11.978;2022-11-11T04:38:53;2.07;;;2.07;;
25349;SDS011;13302;48.796;11.978;2022-11-11T04:42:18;2.10;;;2.10;;
25349;SDS011;13302;48.796;11.978;2022-11-11T04:45:24;2.30;;;2.20;;
25349;SDS011;13302;48.796;11.978;2022-11-11T04:48:33;1.90;;;1.90;;
25349;SDS011;13302;48.796;11.978;2022-11-11T04:51:39;2.10;;;2.00;;
25349;SDS011;13302;48.796;11.978;2022-11-11T04:55:03;2.00;;;2.00;;
25349;SDS011;13302;48.796;11.978;2022-11-11T04:58:41;2.00;;;2.00;;
25349;SDS011;13302;48.796;11.978;2022-11-11T05:01:47;1.70;;;1.70;;
25349;SDS011;13302;48.796;11.978;2022-11-11T05:05:11;1.90;;;1.90;;
25349;SDS011;13302;48.796;11.978;2022-11-11T05:08:17;1.70;;;1.70;;
25349;SDS011;13302;48.796;11.978;2022-11-11T05:11:41;1.83;;;1.73;;
25349;SDS011;13302;48.796;11.978;2022-11-11T05:14:47;1.90;;;1.90;;
25349;SDS011;13302;48.796;11.978;2022-11-11T05:18:11;1.60;;;1.60;;
25349;SDS011;13302;48.796;11.978;2022-11-11T05:21:37;1.70;;;1.70;;
25349;SDS011;13302;48.796;11.978;2022-11-11T05:24:43;2.00;;;2.00;;
25349;SDS011;13302;48.796;11.978;2022-11-11T05:28:07;2.20;;;2.17;;
25349;SDS011;13302;48.796;11.978;2022-11-11T05:31:13;2.20;;;2.10;;
25349;SDS011;13302;48.796;11.978;2022-11-11T05:34:18;2.10;;;2.10;;
25349;SDS011;13302;48.796;11.978;2022-11-11T05:37:24;2.20;;;2.20;;
25349;SDS011;13302;48.796;11.978;2022-11-11T05:40:29;2.30;;;2.20;;
25349;SDS011;13302;48.796;11.978;2022-11-11T05:43:35;2.17;;;2.00;;
25349;SDS011;13302;48.796;11.978;2022-11-11T05:46:41;1.83;;;1.83;;
25349;SDS011;13302;48.796;11.978;2022-11-11T05:49:47;2.07;;;1.90;;
25349;SDS011;13302;48.796;11.978;2022-11-11T05:52:52;2.10;;;2.10;;
25349;SDS011;13302;48.796;11.978;2022-11-11T05:55:58;2.17;;;2.07;;
25349;SDS011;13302;48.796;11.978;2022-11-11T05:59:03;2.53;;;2.43;;
25349;SDS011;13302;48.796;11.978;2022-11-11T06:02:09;2.20;;;2.10;;
25349;SDS011;13302;48.796;11.978;2022-11-11T06:05:15;2.37;;;2.27;;
25349;SDS011;13302;48.796;11.978;2022-11-11T06:08:20;2.20;;;2.17;;
25349;SDS011;13302;48.796;11.978;2022-11-11T06:11:26;2.33;;;2.20;;
25349;SDS011;13302;48.796;11.978;2022-11-11T06:14:37;1.73;;;1.73;;
25349;SDS011;13302;48.796;11.978;2022-11-11T06:17:43;2.57;;;2.00;;
25349;SDS011;13302;48.796;11.978;2022-11-11T06:20:52;2.30;;;2.20;;
25349;SDS011;13302;48.796;11.978;2022-11-11T06:23:58;2.47;;;2.37;;
25349;SDS011;13302;48.796;11.978;2022-11-11T06:27:04;2.27;;;2.03;;
25349;SDS011;13302;48.796;11.978;2022-11-11T06:30:10;2.30;;;2.20;;
25349;SDS011;13302;48.796;11.978;2022-11-11T06:33:36;2.67;;;2.53;;
25349;SDS011;13302;48.796;11.978;2022-11-11T06:36:42;2.20;;;2.10;;
25349;SDS011;13302;48.796;11.978;2022-11-11T06:39:48;2.40;;;2.40;;
25349;SDS011;13302;48.796;11.978;2022-11-11T06:42:53;2.50;;;2.30;;
25349;SDS011;13302;48.796;11.978;2022-11-11T06:45:59;2.57;;;2.47;;
25349;SDS011;13302;48.796;11.978;2022-11-11T06:49:05;2.33;;;2.33;;
25349;SDS011;13302;48.796;11.978;2022-11-11T06:52:10;2.83;;;2.73;;
25349;SDS011;13302;48.796;11.978;2022-11-11T06:55:16;2.87;;;2.67;;
25349;SDS011;13302;48.796;11.978;2022-11-11T06:58:23;3.07;;;2.97;;
25349;SDS011;13302;48.796;11.978;2022-11-11T07:01:29;2.90;;;2.80;;
25349;SDS011;13302;48.796;11.978;2022-11-11T07:04:35;2.90;;;2.80;;
25349;SDS011;13302;48.796;11.978;2022-11-11T07:07:41;2.80;;;2.70;;
25349;SDS011;13302;48.796;11.978;2022-11-11T07:10:47;3.07;;;2.87;;
25349;SDS011;13302;48.796;11.978;2022-11-11T07:13:53;3.00;;;2.90;;
25349;SDS011;13302;48.796;11.978;2022-11-11T07:16:58;2.70;;;2.60;;
25349;SDS011;13302;48.796;11.978;2022-11-11T07:20:10;2.90;;;2.80;;
25349;SDS011;13302;48.796;11.978;2022-11-11T07:23:16;2.60;;;2.50;;
25349;SDS011;13302;48.796;11.978;2022-11-11T07:26:22;2.73;;;2.63;;
25349;SDS011;13302;48.796;11.978;2022-11-11T07:29:27;2.70;;;2.60;;
25349;SDS011;13302;48.796;11.978;2022-11-11T07:32:33;2.70;;;2.60;;
25349;SDS011;13302;48.796;11.978;2022-11-11T07:35:40;3.10;;;2.90;;
25349;SDS011;13302;48.796;11.978;2022-11-11T07:38:45;2.90;;;2.80;;
25349;SDS011;13302;48.796;11.978;2022-11-11T07:41:51;2.73;;;2.63;;
25349;SDS011;13302;48.796;11.978;2022-11-11T07:44:57;2.77;;;2.67;;
25349;SDS011;13302;48.796;11.978;2022-11-11T07:48:02;2.87;;;2.67;;
25349;SDS011;13302;48.796;11.978;2022-11-11T07:51:09;2.83;;;2.73;;
25349;SDS011;13302;48.796;11.978;2022-11-11T07:54:14;3.40;;;3.20;;
25349;SDS011;13302;48.796;11.978;2022-11-11T07:57:19;3.50;;;3.30;;
25349;SDS011;13302;48.796;11.978;2022-11-11T08:00:25;3.33;;;3.20;;
25349;SDS011;13302;48.796;11.978;2022-11-11T08:03:31;3.10;;;2.90;;
25349;SDS011;13302;48.796;11.978;2022-11-11T08:06:36;2.80;;;2.70;;
25349;SDS011;13302;48.796;11.978;2022-11-11T08:09:42;2.70;;;2.60;;
25349;SDS011;13302;48.796;11.978;2022-11-11T08:12:54;3.03;;;2.67;;
25349;SDS011;13302;48.796;11.978;2022-11-11T08:16:18;2.70;;;2.60;;
25349;SDS011;13302;48.796;11.978;2022-11-11T08:19:24;2.57;;;2.47;;
25349;SDS011;13302;48.796;11.978;2022-11-11T08:22:34;2.50;;;2.40;;
25349;SDS011;13302;48.796;11.978;2022-11-11T08:25:43;2.57;;;2.47;;
25349;SDS011;13302;48.796;11.978;2022-11-11T08:28:50;2.60;;;2.50;;
25349;SDS011;13302;48.796;11.978;2022-11-11T08:31:56;2.60;;;2.50;;
25349;SDS011;13302;48.796;11.978;2022-11-11T08:35:01;2.50;;;2.40;;
25349;SDS011;13302;48.796;11.978;2022-11-11T08:38:07;2.10;;;2.10;;
25349;SDS011;13302;48.796;11.978;2022-11-11T08:41:12;2.07;;;2.03;;
25349;SDS011;13302;48.796;11.978;2022-11-11T08:44:18;2.43;;;2.33;;
25349;SDS011;13302;48.796;11.978;2022-11-11T08:47:24;2.20;;;2.20;;
25349;SDS011;13302;48.796;11.978;2022-11-11T08:50:29;2.07;;;2.03;;
25349;SDS011;13302;48.796;11.978;2022-11-11T08:53:35;2.40;;;2.30;;
25349;SDS011;13302;48.796;11.978;2022-11-11T08:56:41;2.80;;;2.70;;
25349;SDS011;13302;48.796;11.978;2022-11-11T08:59:47;3.00;;;2.90;;
25349;SDS011;13302;48.796;11.978;2022-11-11T09:02:53;2.30;;;2.30;;
25349;SDS011;13302;48.796;11.978;2022-11-11T09:05:59;2.13;;;2.13;;
25349;SDS011;13302;48.796;11.978;2022-11-11T09:09:04;2.60;;;2.50;;
25349;SDS011;13302;48.796;11.978;2022-11-11T09:12:11;2.67;;;2.57;;
25349;SDS011;13302;48.796;11.978;2022-11-11T09:15:17;2.23;;;2.13;;
25349;SDS011;13302;48.796;11.978;2022-11-11T09:18:22;2.07;;;1.97;;
25349;SDS011;13302;48.796;11.978;2022-11-11T09:21:28;2.20;;;2.20;;
25349;SDS011;13302;48.796;11.978;2022-11-11T09:24:33;2.03;;;2.03;;
25349;SDS011;13302;48.796;11.978;2022-11-11T09:27:39;2.50;;;2.43;;
25349;SDS011;13302;48.796;11.978;2022-11-11T09:30:45;2.50;;;2.40;;
25349;SDS011;13302;48.796;11.978;2022-11-11T09:33:52;2.10;;;2.10;;
25349;SDS011;13302;48.796;11.978;2022-11-11T09:36:58;2.80;;;2.70;;
25349;SDS011;13302;48.796;11.978;2022-11-11T09:40:04;2.13;;;2.13;;
25349;SDS011;13302;48.796;11.978;2022-11-11T09:46:55;3.30;;;3.20;;
25349;SDS011;13302;48.796;11.978;2022-11-11T09:50:15;2.40;;;2.30;;
25349;SDS011;13302;48.796;11.978;2022-11-11T09:53:35;2.63;;;2.53;;
25349;SDS011;13302;48.796;11.978;2022-11-11T09:56:46;2.70;;;2.60;;
25349;SDS011;13302;48.796;11.978;2022-11-11T09:59:53;2.60;;;2.50;;
25349;SDS011;13302;48.796;11.978;2022-11-11T10:03:20;2.60;;;2.50;;
25349;SDS011;13302;48.796;11.978;2022-11-11T10:06:28;2.53;;;2.43;;
25349;SDS011;13302;48.796;11.978;2022-11-11T10:09:40;2.33;;;2.23;;
25349;SDS011;13302;48.796;11.978;2022-11-11T10:12:55;2.40;;;2.30;;
25349;SDS011;13302;48.796;11.978;2022-11-11T10:19:51;2.53;;;2.43;;
25349;SDS011;13302;48.796;11.978;2022-11-11T10:26:26;2.60;;;2.50;;
25349;SDS011;13302;48.796;11.978;2022-11-11T10:29:43;4.13;;;3.83;;
25349;SDS011;13302;48.796;11.978;2022-11-11T10:32:57;4.00;;;3.70;;
25349;SDS011;13302;48.796;11.978;2022-11-11T10:36:08;2.80;;;2.70;;
25349;SDS011;13302;48.796;11.978;2022-11-11T10:39:31;2.90;;;2.80;;
25349;SDS011;13302;48.796;11.978;2022-11-11T10:42:47;2.63;;;2.47;;
25349;SDS011;13302;48.796;11.978;2022-11-11T10:49:15;2.80;;;2.60;;
25349;SDS011;13302;48.796;11.978;2022-11-11T10:52:26;2.70;;;2.60;;
25349;SDS011;13302;48.796;11.978;2022-11-11T10:55:42;2.60;;;2.50;;
25349;SDS011;13302;48.796;11.978;2022-11-11T10:58:54;2.60;;;2.50;;
25349;SDS011;13302;48.796;11.978;2022-11-11T11:05:33;2.50;;;2.40;;
25349;SDS011;13302;48.796;11.978;2022-11-11T11:08:48;3.00;;;2.80;;
25349;SDS011;13302;48.796;11.978;2022-11-11T11:11:59;2.83;;;2.67;;
25349;SDS011;13302;48.796;11.978;2022-11-11T11:15:12;2.80;;;2.70;;
25349;SDS011;13302;48.796;11.978;2022-11-11T11:18:22;2.63;;;2.53;;
25349;SDS011;13302;48.796;11.978;2022-11-11T11:21:38;2.57;;;2.40;;
25349;SDS011;13302;48.796;11.978;2022-11-11T11:24:57;2.50;;;2.40;;
25349;SDS011;13302;48.796;11.978;2022-11-11T11:28:14;2.70;;;2.60;;
25349;SDS011;13302;48.796;11.978;2022-11-11T11:31:23;2.67;;;2.57;;
25349;SDS011;13302;48.796;11.978;2022-11-11T11:34:42;2.40;;;2.30;;
25349;SDS011;13302;48.796;11.978;2022-11-11T11:37:49;2.87;;;2.77;;
25349;SDS011;13302;48.796;11.978;2022-11-11T11:40:56;2.93;;;2.83;;
25349;SDS011;13302;48.796;11.978;2022-11-11T11:44:02;2.47;;;2.37;;
25349;SDS011;13302;48.796;11.978;2022-11-11T11:50:45;2.43;;;2.33;;
25349;SDS011;13302;48.796;11.978;2022-11-11T12:07:41;4.20;;;3.90;;
25349;SDS011;13302;48.796;11.978;2022-11-11T12:11:28;3.80;;;3.60;;
25349;SDS011;13302;48.796;11.978;2022-11-11T12:25:39;4.10;;;3.80;;
25349;SDS011;13302;48.796;11.978;2022-11-11T12:32:42;4.00;;;3.80;;
25349;SDS011;13302;48.796;11.978;2022-11-11T12:36:22;3.67;;;3.47;;
25349;SDS011;13302;48.796;11.978;2022-11-11T12:39:56;4.40;;;4.00;;
25349;SDS011;13302;48.796;11.978;2022-11-11T12:53:49;3.83;;;3.63;;
25349;SDS011;13302;48.796;11.978;2022-11-11T12:57:11;4.23;;;4.03;;
25349;SDS011;13302;48.796;11.978;2022-11-11T13:00:32;4.13;;;3.83;;
25349;SDS011;13302;48.796;11.978;2022-11-11T13:14:15;4.07;;;3.87;;
25349;SDS011;13302;48.796;11.978;2022-11-11T13:17:38;3.20;;;3.10;;
25349;SDS011;13302;48.796;11.978;2022-11-11T13:20:45;4.00;;;3.80;;
25349;SDS011;13302;48.796;11.978;2022-11-11T13:24:00;3.90;;;3.70;;
25349;SDS011;13302;48.796;11.978;2022-11-11T13:27:13;4.97;;;3.17;;
25349;SDS011;13302;48.796;11.978;2022-11-11T13:34:16;5.27;;;4.87;;
25349;SDS011;13302;48.796;11.978;2022-11-11T13:37:26;7.10;;;6.50;;
25349;SDS011;13302;48.796;11.978;2022-11-11T13:40:41;4.80;;;4.50;;
25349;SDS011;13302;48.796;11.978;2022-11-11T13:43:49;7.40;;;6.80;;
25349;SDS011;13302;48.796;11.978;2022-11-11T13:47:03;5.97;;;5.57;;
25349;SDS011;13302;48.796;11.978;2022-11-11T13:50:12;4.83;;;4.53;;
25349;SDS011;13302;48.796;11.978;2022-11-11T13:53:28;4.70;;;4.40;;
25349;SDS011;13302;48.796;11.978;2022-11-11T13:56:40;5.03;;;4.73;;
25349;SDS011;13302;48.796;11.978;2022-11-11T13:59:59;5.47;;;4.97;;
25349;SDS011;13302;48.796;11.978;2022-11-11T14:19:40;6.20;;;5.77;;
25349;SDS011;13302;48.796;11.978;2022-11-11T14:22:46;6.57;;;6.07;;
25349;SDS011;13302;48.796;11.978;2022-11-11T14:29:17;5.90;;;5.30;;
25349;SDS011;13302;48.796;11.978;2022-11-11T14:35:39;5.50;;;5.10;;
25349;SDS011;13302;48.796;11.978;2022-11-11T14:42:54;5.23;;;4.87;;
25349;SDS011;13302;48.796;11.978;2022-11-11T14:46:00;6.73;;;6.23;;
25349;SDS011;13302;48.796;11.978;2022-11-11T14:49:07;5.60;;;5.10;;
25349;SDS011;13302;48.796;11.978;2022-11-11T14:52:25;5.40;;;5.00;;
25349;SDS011;13302;48.796;11.978;2022-11-11T14:55:50;5.23;;;4.90;;
25349;SDS011;13302;48.796;11.978;2022-11-11T14:59:02;6.00;;;5.60;;
25349;SDS011;13302;48.796;11.978;2022-11-11T15:02:24;5.93;;;5.53;;
25349;SDS011;13302;48.796;11.978;2022-11-11T15:08:45;5.60;;;5.20;;
25349;SDS011;13302;48.796;11.978;2022-11-11T15:12:06;6.30;;;5.80;;
25349;SDS011;13302;48.796;11.978;2022-11-11T15:25:48;7.53;;;6.77;;
25349;SDS011;13302;48.796;11.978;2022-11-11T15:29:05;7.07;;;6.47;;
25349;SDS011;13302;48.796;11.978;2022-11-11T15:39:16;7.30;;;6.60;;
25349;SDS011;13302;48.796;11.978;2022-11-11T15:42:34;7.13;;;6.63;;
25349;SDS011;13302;48.796;11.978;2022-11-11T15:45:43;6.80;;;6.30;;
25349;SDS011;13302;48.796;11.978;2022-11-11T15:48:48;7.00;;;6.50;;
25349;SDS011;13302;48.796;11.978;2022-11-11T15:51:56;6.13;;;5.73;;
25349;SDS011;13302;48.796;11.978;2022-11-11T15:55:08;7.47;;;6.97;;
25349;SDS011;13302;48.796;11.978;2022-11-11T15:58:31;6.07;;;5.63;;
25349;SDS011;13302;48.796;11.978;2022-11-11T16:01:37;5.93;;;5.53;;
25349;SDS011;13302;48.796;11.978;2022-11-11T16:04:47;5.57;;;5.27;;
25349;SDS011;13302;48.796;11.978;2022-11-11T16:08:06;5.17;;;4.87;;
25349;SDS011;13302;48.796;11.978;2022-11-11T16:11:15;5.17;;;4.87;;
25349;SDS011;13302;48.796;11.978;2022-11-11T16:14:28;6.63;;;6.03;;
25349;SDS011;13302;48.796;11.978;2022-11-11T16:17:40;7.17;;;6.67;;
25349;SDS011;13302;48.796;11.978;2022-11-11T16:21:02;6.43;;;5.93;;
25349;SDS011;13302;48.796;11.978;2022-11-11T16:24:17;5.90;;;5.37;;
25349;SDS011;13302;48.796;11.978;2022-11-11T16:27:41;5.13;;;4.83;;
25349;SDS011;13302;48.796;11.978;2022-11-11T16:30:46;4.77;;;4.37;;
25349;SDS011;13302;48.796;11.978;2022-11-11T16:33:52;6.20;;;4.40;;
25349;SDS011;13302;48.796;11.978;2022-11-11T16:37:02;4.30;;;4.10;;
25349;SDS011;13302;48.796;11.978;2022-11-11T16:40:25;6.73;;;4.37;;
25349;SDS011;13302;48.796;11.978;2022-11-11T16:43:42;4.23;;;4.03;;
25349;SDS011;13302;48.796;11.978;2022-11-11T16:46:48;4.60;;;4.30;;
25349;SDS011;13302;48.796;11.978;2022-11-11T16:50:07;5.00;;;4.70;;
25349;SDS011;13302;48.796;11.978;2022-11-11T16:53:32;4.97;;;4.67;;
25349;SDS011;13302;48.796;11.978;2022-11-11T16:56:45;5.07;;;4.77;;
25349;SDS011;13302;48.796;11.978;2022-11-11T16:59:55;5.10;;;4.70;;
25349;SDS011;13302;48.796;11.978;2022-11-11T17:03:13;5.40;;;5.00;;
25349;SDS011;13302;48.796;11.978;2022-11-11T17:13:15;5.20;;;4.90;;
25349;SDS011;13302;48.796;11.978;2022-11-11T17:16:21;4.93;;;4.63;;
25349;SDS011;13302;48.796;11.978;2022-11-11T17:19:28;5.03;;;4.70;;
25349;SDS011;13302;48.796;11.978;2022-11-11T17:22:35;4.70;;;4.40;;
25349;SDS011;13302;48.796;11.978;2022-11-11T17:25:40;4.80;;;4.50;;
25349;SDS011;13302;48.796;11.978;2022-11-11T17:28:46;4.27;;;3.97;;
25349;SDS011;13302;48.796;11.978;2022-11-11T17:31:51;4.07;;;3.87;;
25349;SDS011;13302;48.796;11.978;2022-11-11T17:34:57;4.57;;;4.27;;
25349;SDS011;13302;48.796;11.978;2022-11-11T17:38:02;4.47;;;4.27;;
25349;SDS011;13302;48.796;11.978;2022-11-11T17:41:12;4.87;;;4.57;;
25349;SDS011;13302;48.796;11.978;2022-11-11T17:44:18;4.80;;;4.50;;
25349;SDS011;13302;48.796;11.978;2022-11-11T17:47:24;4.10;;;3.90;;
25349;SDS011;13302;48.796;11.978;2022-11-11T17:50:29;3.90;;;3.70;;
25349;SDS011;13302;48.796;11.978;2022-11-11T17:53:35;4.40;;;4.13;;
25349;SDS011;13302;48.796;11.978;2022-11-11T17:56:41;4.73;;;4.50;;
25349;SDS011;13302;48.796;11.978;2022-11-11T17:59:49;4.43;;;4.20;;
25349;SDS011;13302;48.796;11.978;2022-11-11T18:02:55;4.67;;;4.37;;
25349;SDS011;13302;48.796;11.978;2022-11-11T18:06:00;4.67;;;4.37;;
25349;SDS011;13302;48.796;11.978;2022-11-11T18:09:06;5.13;;;4.83;;
25349;SDS011;13302;48.796;11.978;2022-11-11T18:12:12;4.40;;;4.10;;
25349;SDS011;13302;48.796;11.978;2022-11-11T18:15:17;4.17;;;3.97;;
25349;SDS011;13302;48.796;11.978;2022-11-11T18:18:24;3.90;;;3.70;;
25349;SDS011;13302;48.796;11.978;2022-11-11T18:21:30;4.70;;;4.13;;
25349;SDS011;13302;48.796;11.978;2022-11-11T18:24:36;3.87;;;3.67;;
25349;SDS011;13302;48.796;11.978;2022-11-11T18:27:42;4.23;;;4.03;;
25349;SDS011;13302;48.796;11.978;2022-11-11T18:30:49;4.43;;;4.03;;
25349;SDS011;13302;48.796;11.978;2022-11-11T18:33:55;4.20;;;4.00;;
25349;SDS011;13302;48.796;11.978;2022-11-11T18:37:00;4.80;;;4.50;;
25349;SDS011;13302;48.796;11.978;2022-11-11T18:40:06;4.30;;;4.10;;
25349;SDS011;13302;48.796;11.978;2022-11-11T18:43:12;3.60;;;3.40;;
25349;SDS011;13302;48.796;11.978;2022-11-11T18:46:19;3.50;;;3.30;;
25349;SDS011;13302;48.796;11.978;2022-11-11T18:49:29;3.50;;;3.30;;
25349;SDS011;13302;48.796;11.978;2022-11-11T18:52:35;3.47;;;3.37;;
25349;SDS011;13302;48.796;11.978;2022-11-11T18:55:41;3.43;;;3.33;;
25349;SDS011;13302;48.796;11.978;2022-11-11T18:58:47;3.17;;;2.97;;
25349;SDS011;13302;48.796;11.978;2022-11-11T19:01:54;3.30;;;3.10;;
25349;SDS011;13302;48.796;11.978;2022-11-11T19:05:00;3.10;;;3.00;;
25349;SDS011;13302;48.796;11.978;2022-11-11T19:08:06;2.97;;;2.87;;
25349;SDS011;13302;48.796;11.978;2022-11-11T19:11:12;3.23;;;3.13;;
25349;SDS011;13302;48.796;11.978;2022-11-11T19:14:18;3.47;;;3.27;;
25349;SDS011;13302;48.796;11.978;2022-11-11T19:17:27;3.20;;;3.10;;
25349;SDS011;13302;48.796;11.978;2022-11-11T19:20:32;3.20;;;2.83;;
25349;SDS011;13302;48.796;11.978;2022-11-11T19:23:38;3.40;;;3.30;;
25349;SDS011;13302;48.796;11.978;2022-11-11T19:26:44;3.00;;;2.90;;
25349;SDS011;13302;48.796;11.978;2022-11-11T19:29:52;3.20;;;3.10;;
25349;SDS011;13302;48.796;11.978;2022-11-11T19:32:58;4.07;;;3.87;;
25349;SDS011;13302;48.796;11.978;2022-11-11T19:36:08;4.03;;;3.83;;
25349;SDS011;13302;48.796;11.978;2022-11-11T19:39:15;4.40;;;4.10;;
25349;SDS011;13302;48.796;11.978;2022-11-11T19:42:21;4.50;;;4.20;;
25349;SDS011;13302;48.796;11.978;2022-11-11T19:45:27;3.70;;;3.50;;
25349;SDS011;13302;48.796;11.978;2022-11-11T19:48:37;3.80;;;3.60;;
25349;SDS011;13302;48.796;11.978;2022-11-11T19:51:42;3.27;;;3.17;;
25349;SDS011;13302;48.796;11.978;2022-11-11T19:54:49;2.73;;;2.63;;
25349;SDS011;13302;48.796;11.978;2022-11-11T19:57:55;2.90;;;2.80;;
25349;SDS011;13302;48.796;11.978;2022-11-11T20:01:11;2.77;;;2.67;;
25349;SDS011;13302;48.796;11.978;2022-11-11T20:04:19;2.70;;;2.60;;
25349;SDS011;13302;48.796;11.978;2022-11-11T20:07:25;2.30;;;2.20;;
25349;SDS011;13302;48.796;11.978;2022-11-11T20:10:34;2.47;;;2.37;;
25349;SDS011;13302;48.796;11.978;2022-11-11T20:13:44;1.93;;;1.93;;
25349;SDS011;13302;48.796;11.978;2022-11-11T20:16:50;2.30;;;2.20;;
25349;SDS011;13302;48.796;11.978;2022-11-11T20:19:55;2.10;;;2.10;;
25349;SDS011;13302;48.796;11.978;2022-11-11T20:23:04;2.40;;;2.30;;
25349;SDS011;13302;48.796;11.978;2022-11-11T20:26:11;2.20;;;2.20;;
25349;SDS011;13302;48.796;11.978;2022-11-11T20:29:18;2.50;;;2.50;;
25349;SDS011;13302;48.796;11.978;2022-11-11T20:32:25;2.60;;;2.50;;
25349;SDS011;13302;48.796;11.978;2022-11-11T20:35:31;3.10;;;3.00;;
25349;SDS011;13302;48.796;11.978;2022-11-11T20:38:42;5.80;;;5.30;;
25349;SDS011;13302;48.796;11.978;2022-11-11T20:41:48;5.70;;;5.20;;
25349;SDS011;13302;48.796;11.978;2022-11-11T20:44:54;4.00;;;3.70;;
25349;SDS011;13302;48.796;11.978;2022-11-11T20:47:59;3.73;;;3.43;;
25349;SDS011;13302;48.796;11.978;2022-11-11T20:51:06;3.40;;;3.20;;
25349;SDS011;13302;48.796;11.978;2022-11-11T20:54:13;3.77;;;3.57;;
25349;SDS011;13302;48.796;11.978;2022-11-11T20:57:19;3.50;;;3.30;;